createdAt,value
2023-02-27T00:16:21.577Z,18
2023-02-27T00:33:55.778Z,21
2023-02-27T00:57:40.755Z,24
2023-02-27T01:33:14.198Z,24
2023-02-27T02:00:25.080Z,23
2023-02-27T02:02:53.304Z,21
2023-02-27T02:05:29.730Z,24
2023-02-27T02:09:20.335Z,21
2023-02-27T02:15:39.208Z,22
2023-02-27T02:19:29.800Z,21
2023-02-27T02:23:20.396Z,22
2023-02-27T02:25:56.824Z,23
2023-02-27T02:29:47.426Z,23
2023-02-27T02:32:15.700Z,26
2023-02-27T02:37:20.578Z,19
2023-02-27T02:42:25.169Z,19
2023-02-27T02:44:53.420Z,21
2023-02-27T02:47:21.709Z,21
2023-02-27T02:49:58.138Z,19
2023-02-27T02:52:34.578Z,18
2023-02-27T02:56:17.005Z,20
2023-02-27T02:58:45.269Z,21
2023-02-27T03:01:13.571Z,20
2023-02-27T03:04:56.001Z,22
2023-02-27T03:07:24.404Z,19
2023-02-27T04:03:24.771Z,17
2023-02-27T04:06:01.199Z,19
2023-02-27T04:08:37.671Z,16
2023-02-27T04:12:20.105Z,17
2023-02-27T04:14:48.450Z,14
2023-02-27T04:17:24.880Z,20
2023-02-27T04:19:53.073Z,16
2023-02-27T04:22:21.330Z,17
2023-02-27T04:24:49.580Z,17
2023-02-27T04:27:17.873Z,19
2023-02-27T04:29:54.356Z,18
2023-02-27T04:32:22.758Z,16
2023-02-27T04:36:13.235Z,13
2023-02-27T04:38:41.469Z,16
2023-02-27T04:42:23.870Z,16
2023-02-27T04:47:20.416Z,13
2023-02-27T04:49:48.750Z,16
2023-02-27T05:03:32.304Z,15
2023-02-27T05:14:23.194Z,16
2023-02-27T05:18:13.842Z,15
2023-02-27T05:21:56.102Z,13
2023-02-27T05:24:27.471Z,16
2023-02-27T05:26:52.634Z,14
2023-02-27T05:29:20.931Z,15
2023-02-27T05:31:49.286Z,12
2023-02-27T05:34:25.699Z,15
2023-02-27T05:36:53.905Z,16
2023-02-27T05:39:22.151Z,14
2023-02-27T05:41:50.438Z,15
2023-02-27T05:45:32.851Z,16
2023-02-27T05:49:15.238Z,16
2023-02-27T06:03:07.106Z,14
2023-02-27T06:31:32.165Z,13
2023-02-27T06:35:14.573Z,15
2023-02-27T06:37:42.821Z,15
2023-02-27T06:41:25.246Z,14
2023-02-27T06:47:35.880Z,14
2023-02-27T06:50:12.366Z,16
2023-02-27T07:22:36.194Z,14
2023-02-27T07:26:26.970Z,14
2023-02-27T07:31:23.369Z,12
2023-02-27T07:36:19.842Z,14
2023-02-27T07:38:56.292Z,12
2023-02-27T07:41:32.796Z,13
2023-02-27T07:45:15.162Z,16
2023-02-27T07:47:43.455Z,14
2023-02-27T07:50:11.704Z,14
2023-02-27T07:52:39.960Z,13
2023-02-27T07:56:22.431Z,13
2023-02-27T08:07:46.100Z,19
2023-02-27T08:11:36.582Z,13
2023-02-27T08:15:27.201Z,11
2023-02-27T08:21:46.032Z,16
2023-02-27T08:42:38.125Z,16
2023-02-27T09:01:18.369Z,15
2023-02-27T09:37:32.687Z,12
2023-02-27T09:41:15.131Z,13
2023-02-27T09:46:28.347Z,14
2023-02-27T09:50:18.583Z,13
2023-02-27T09:52:38.652Z,15
2023-02-27T09:56:21.059Z,15
2023-02-27T09:58:49.332Z,11
2023-02-27T10:01:17.608Z,13
2023-02-27T10:32:27.391Z,10
2023-02-27T10:36:32.857Z,9
2023-02-27T10:38:46.158Z,11
2023-02-27T10:41:14.518Z,10
2023-02-27T10:46:27.818Z,10
2023-02-27T10:50:26.113Z,12
2023-02-27T10:52:46.200Z,11
2023-02-27T10:55:14.480Z,10
2023-02-27T10:57:42.742Z,10
2023-02-27T11:01:25.500Z,15
2023-02-27T11:05:15.751Z,10
2023-02-27T11:07:44.055Z,11
2023-02-27T11:10:12.295Z,7
2023-02-27T11:12:40.511Z,8
2023-02-27T11:16:22.948Z,10
2023-02-27T11:18:51.273Z,9
2023-02-27T11:22:41.932Z,7
2023-02-27T11:41:22.073Z,9
2023-02-27T12:02:30.534Z,9
2023-02-27T12:27:29.474Z,7
2023-02-27T12:31:11.941Z,10
2023-02-27T12:34:54.311Z,8
2023-02-27T12:37:22.555Z,7
2023-02-27T12:39:50.821Z,6
2023-02-27T12:42:19.178Z,8
2023-02-27T13:40:39.845Z,8
2023-02-27T14:26:14.527Z,9
2023-02-27T14:44:54.736Z,8
2023-02-27T14:48:45.336Z,6
2023-02-27T15:14:50.314Z,8
2023-02-27T15:18:40.901Z,8
2023-02-27T15:22:36.378Z,12
2023-02-27T15:24:51.520Z,11
2023-02-27T15:28:33.939Z,10
2023-02-27T15:59:27.274Z,9
2023-02-27T16:04:23.836Z,9
2023-02-27T16:42:50.209Z,9
2023-02-27T16:52:59.565Z,7
2023-02-27T17:00:32.643Z,8
2023-02-27T17:14:16.220Z,8
2023-02-27T17:27:43.505Z,10
2023-02-27T17:30:11.754Z,9
2023-02-27T17:32:40.003Z,11
2023-02-27T17:36:23.430Z,12
2023-02-27T17:38:50.652Z,11
2023-02-27T17:42:33.063Z,11
2023-02-27T18:09:52.260Z,7
2023-02-27T18:12:28.643Z,10
2023-02-27T18:17:25.180Z,9
2023-02-27T18:22:21.759Z,10
2023-02-27T18:24:49.988Z,10
2023-02-27T18:52:00.896Z,12
2023-02-27T18:54:37.381Z,12
2023-02-27T18:58:19.753Z,11
2023-02-27T19:03:24.704Z,15
2023-02-27T19:07:15.114Z,14
2023-02-27T19:09:43.371Z,15
2023-02-27T19:13:26.786Z,14
2023-02-27T19:18:22.358Z,18
2023-02-27T19:51:43.967Z,17
2023-02-27T20:01:53.345Z,19
2023-02-27T20:45:35.708Z,19
2023-02-27T20:49:14.962Z,19
2023-02-27T20:51:43.293Z,17
2023-02-27T20:55:25.638Z,21
2023-02-27T20:57:53.913Z,20
2023-02-27T21:00:22.260Z,20
2023-02-27T21:07:47.083Z,16
2023-02-27T21:28:55.512Z,16
2023-02-27T21:32:46.086Z,16
2023-02-27T21:41:33.218Z,20
2023-02-27T22:12:42.867Z,14
2023-02-27T22:30:17.226Z,15
2023-02-27T23:17:30.615Z,16
2023-02-27T23:43:35.654Z,18
2023-02-27T23:52:14.457Z,13
2023-02-27T23:54:42.783Z,14
2023-02-27T23:58:25.168Z,17
